createdAt,value
2023-03-27T04:36:09.262Z,19.48
2023-03-27T04:38:40.435Z,21.77
2023-03-27T04:41:09.766Z,22.23
2023-03-27T04:43:41.254Z,24.70
2023-03-27T04:46:10.337Z,23.00
2023-03-27T04:48:39.615Z,20.08
2023-03-27T04:51:13.155Z,20.48
2023-03-27T04:53:44.029Z,19.10
2023-03-27T04:56:13.097Z,19.67
2023-03-27T04:58:42.477Z,21.42
2023-03-27T05:01:11.477Z,20.38
2023-03-27T05:03:41.607Z,19.33
2023-03-27T05:06:11.311Z,19.65
2023-03-27T05:08:40.287Z,20.35
2023-03-27T05:11:09.891Z,19.35
2023-03-27T05:13:39.688Z,21.40
2023-03-27T05:16:11.136Z,17.42
2023-03-27T05:18:41.959Z,17.10
2023-03-27T05:21:11.940Z,15.75
2023-03-27T05:23:40.890Z,16.08
2023-03-27T05:26:10.010Z,17.38
2023-03-27T05:28:41.023Z,17.25
2023-03-27T05:31:19.093Z,16.15
2023-03-27T05:33:48.344Z,19.20
2023-03-27T05:36:17.539Z,17.98
2023-03-27T05:38:47.111Z,19.25
2023-03-27T05:41:17.455Z,19.10
2023-03-27T05:43:47.109Z,16.65
2023-03-27T05:46:21.386Z,18.02
2023-03-27T05:48:50.943Z,18.13
2023-03-27T05:51:19.969Z,16.08
2023-03-27T05:53:48.914Z,14.25
2023-03-27T05:56:18.030Z,12.70
2023-03-27T05:58:46.997Z,14.88
2023-03-27T06:01:16.068Z,12.50
2023-03-27T06:03:45.178Z,12.75
2023-03-27T06:06:14.888Z,14.88
2023-03-27T06:08:43.826Z,18.13
2023-03-27T06:11:14.061Z,11.13
2023-03-27T06:13:43.921Z,10.20
2023-03-27T06:16:13.216Z,9.93
2023-03-27T06:18:42.540Z,11.00
2023-03-27T06:21:11.647Z,11.48
2023-03-27T06:23:40.693Z,22.63
2023-03-27T06:26:09.755Z,9.98
2023-03-27T06:28:40.405Z,12.10
2023-03-27T06:31:10.070Z,17.23
2023-03-27T06:33:41.939Z,10.82
2023-03-27T06:36:11.367Z,10.05
2023-03-27T06:38:40.406Z,11.38
2023-03-27T06:41:09.345Z,9.80
2023-03-27T06:43:38.257Z,9.98
2023-03-27T06:46:08.104Z,8.75
2023-03-27T06:48:37.924Z,10.05
2023-03-27T06:51:07.732Z,12.30
2023-03-27T06:53:38.236Z,9.38
2023-03-27T06:56:08.011Z,11.20
2023-03-27T06:58:37.737Z,9.27
2023-03-27T07:01:06.998Z,8.70
2023-03-27T07:03:36.029Z,9.20
2023-03-27T07:06:05.186Z,8.93
2023-03-27T07:08:34.277Z,9.63
2023-03-27T07:13:37.400Z,11.73
2023-03-27T07:16:07.445Z,9.98
2023-03-27T07:18:37.440Z,10.50
2023-03-27T07:21:08.893Z,9.95
2023-03-27T07:23:37.938Z,9.90
2023-03-27T07:26:07.248Z,9.57
2023-03-27T07:28:39.538Z,9.52
2023-03-27T07:31:26.008Z,9.80
2023-03-27T07:34:00.264Z,8.32
2023-03-27T07:36:30.000Z,10.27
2023-03-27T07:38:58.956Z,10.50
2023-03-27T07:41:28.075Z,12.02
2023-03-27T07:43:58.164Z,9.10
2023-03-27T07:46:27.731Z,12.40
2023-03-27T07:48:58.018Z,14.00
2023-03-27T07:51:27.087Z,11.52
2023-03-27T07:53:59.627Z,9.77
2023-03-27T07:56:29.370Z,13.38
2023-03-27T07:58:58.382Z,11.30
2023-03-27T08:01:27.634Z,16.45
2023-03-27T08:03:58.512Z,11.32
2023-03-27T08:06:28.486Z,13.50
2023-03-27T08:08:58.232Z,9.80
2023-03-27T08:11:30.831Z,9.70
2023-03-27T08:16:30.782Z,12.30
2023-03-27T08:19:01.397Z,11.43
2023-03-27T08:21:35.941Z,12.50
2023-03-27T08:24:05.969Z,10.80
2023-03-27T08:26:35.033Z,12.23
2023-03-27T08:29:04.839Z,10.07
2023-03-27T08:31:37.046Z,16.08
2023-03-27T08:34:06.209Z,16.77
2023-03-27T08:36:35.761Z,15.02
2023-03-27T08:39:05.231Z,13.70
2023-03-27T08:41:49.944Z,11.57
2023-03-27T08:44:22.784Z,11.43
2023-03-27T08:47:09.432Z,14.45
2023-03-27T08:49:43.551Z,11.70
2023-03-27T08:52:20.749Z,13.02
2023-03-27T08:55:08.835Z,15.80
2023-03-27T08:57:38.599Z,12.05
2023-03-27T09:00:16.118Z,15.10
2023-03-27T09:02:54.479Z,11.60
2023-03-27T09:05:32.087Z,12.07
2023-03-27T09:08:33.284Z,11.63
2023-03-27T09:11:20.597Z,12.20
2023-03-27T09:13:53.182Z,17.60
2023-03-27T09:16:35.875Z,14.85
2023-03-27T09:19:28.330Z,16.38
2023-03-27T09:22:03.812Z,13.85
2023-03-27T09:24:37.589Z,13.20
2023-03-27T09:27:16.571Z,13.65
2023-03-27T09:29:49.268Z,16.10
2023-03-27T09:32:18.536Z,13.68
2023-03-27T09:34:54.285Z,13.30
2023-03-27T09:37:23.487Z,10.70
2023-03-27T09:39:54.214Z,12.35
2023-03-27T09:42:35.002Z,12.40
2023-03-27T09:45:11.031Z,11.45
2023-03-27T09:47:52.268Z,12.90
2023-03-27T09:50:42.671Z,11.95
2023-03-27T09:53:26.404Z,12.43
2023-03-27T09:55:57.623Z,12.48
2023-03-27T09:58:50.227Z,12.05
2023-03-27T10:01:35.656Z,15.65
2023-03-27T10:04:15.810Z,12.45
2023-03-27T10:06:49.183Z,16.30
2023-03-27T10:09:28.813Z,17.17
2023-03-27T10:12:09.153Z,11.93
2023-03-27T10:14:45.781Z,15.63
2023-03-27T10:17:40.979Z,15.30
2023-03-27T10:20:21.340Z,13.30
2023-03-27T10:23:04.945Z,14.57
2023-03-27T10:25:40.563Z,18.00
2023-03-27T10:28:31.116Z,14.50
2023-03-27T10:31:01.950Z,14.70
2023-03-27T10:33:37.730Z,15.95
2023-03-27T10:36:09.960Z,15.07
2023-03-27T10:38:43.143Z,17.40
2023-03-27T10:43:59.309Z,16.63
2023-03-27T10:46:30.369Z,16.58
2023-03-27T10:49:20.564Z,20.40
2023-03-27T10:52:04.680Z,19.63
2023-03-27T10:54:55.037Z,18.48
2023-03-27T10:57:35.745Z,16.83
2023-03-27T11:00:21.195Z,14.73
2023-03-27T11:03:08.296Z,16.33
2023-03-27T11:05:54.915Z,19.23
2023-03-27T11:09:06.676Z,14.93
2023-03-27T11:11:43.901Z,20.35
2023-03-27T11:14:38.433Z,17.95
2023-03-27T11:17:10.187Z,20.40
2023-03-27T11:19:51.075Z,21.30
2023-03-27T11:22:33.384Z,23.58
2023-03-27T11:25:26.590Z,21.67
2023-03-27T11:28:20.337Z,17.90
2023-03-27T11:30:57.199Z,23.17
2023-03-27T11:33:49.250Z,20.65
2023-03-27T11:36:30.986Z,39.53
2023-03-27T11:39:24.642Z,30.35
2023-03-27T11:42:02.652Z,25.10
2023-03-27T11:44:31.609Z,19.92
2023-03-27T11:47:31.068Z,20.08
2023-03-27T11:50:27.810Z,23.73
2023-03-27T11:52:59.461Z,18.67
2023-03-27T11:55:40.781Z,24.52
2023-03-27T11:58:09.808Z,24.50
2023-03-27T12:01:03.420Z,21.42
2023-03-27T12:03:44.819Z,23.67
2023-03-27T12:06:17.560Z,25.30
2023-03-27T12:08:52.766Z,20.13
2023-03-27T12:11:23.424Z,22.60
2023-03-27T12:14:19.913Z,21.15
2023-03-27T12:17:05.070Z,29.10
2023-03-27T12:19:46.398Z,27.63
2023-03-27T12:22:41.459Z,27.80
2023-03-27T12:25:46.511Z,25.10
2023-03-27T12:28:38.295Z,24.88
2023-03-27T12:31:26.501Z,30.75
2023-03-27T12:34:15.818Z,30.52
2023-03-27T12:36:49.412Z,27.33
2023-03-27T12:39:25.586Z,25.27
2023-03-27T12:41:55.031Z,29.02
2023-03-27T12:44:53.633Z,36.95
2023-03-27T12:47:27.329Z,27.20
2023-03-27T12:50:12.973Z,31.20
2023-03-27T12:52:45.730Z,35.85
2023-03-27T12:55:20.488Z,28.95
2023-03-27T12:57:49.671Z,27.48
2023-03-27T13:00:26.695Z,31.58
2023-03-27T13:03:14.797Z,27.50
2023-03-27T13:06:13.818Z,28.88
2023-03-27T13:09:06.403Z,34.25
2023-03-27T13:11:50.984Z,32.63
2023-03-27T13:14:39.771Z,31.95
2023-03-27T13:17:18.208Z,30.70
2023-03-27T13:20:10.961Z,31.60
2023-03-27T13:22:55.328Z,31.80
2023-03-27T13:25:30.316Z,24.58
2023-03-27T13:28:26.341Z,27.27
2023-03-27T13:30:58.000Z,30.83
2023-03-27T13:33:32.840Z,29.52
2023-03-27T13:36:04.989Z,30.00
2023-03-27T13:38:53.842Z,26.48
2023-03-27T13:41:49.819Z,32.88
2023-03-27T13:44:29.337Z,26.98
2023-03-27T13:47:05.149Z,30.77
2023-03-27T13:49:51.100Z,35.58
2023-03-27T13:52:26.163Z,33.10
2023-03-27T13:55:29.189Z,25.90
2023-03-27T13:58:20.421Z,32.58
2023-03-27T14:01:26.391Z,28.48
2023-03-27T14:04:10.386Z,27.20
2023-03-27T14:07:16.505Z,28.45
2023-03-27T14:10:10.554Z,27.08
2023-03-27T14:15:42.437Z,25.85
2023-03-27T14:18:40.573Z,26.50
2023-03-27T14:21:27.584Z,29.38
2023-03-27T14:24:23.682Z,33.13
2023-03-27T14:26:56.158Z,25.00
2023-03-27T14:29:25.184Z,23.63
2023-03-27T14:31:54.739Z,22.90
2023-03-27T14:34:35.319Z,23.55
2023-03-27T14:37:32.794Z,23.88
2023-03-27T14:40:02.367Z,26.33
2023-03-27T14:42:33.577Z,24.13
2023-03-27T14:45:25.034Z,27.85
2023-03-27T14:48:01.574Z,30.38
2023-03-27T14:50:32.748Z,25.45
2023-03-27T14:53:02.834Z,32.25
2023-03-27T14:55:35.634Z,28.15
2023-03-27T14:58:11.386Z,31.20
2023-03-27T15:00:42.552Z,25.10
2023-03-27T15:03:36.343Z,25.63
2023-03-27T15:06:18.196Z,31.65
2023-03-27T15:08:53.297Z,26.75
2023-03-27T15:11:25.020Z,26.08
2023-03-27T15:13:54.215Z,23.58
2023-03-27T15:16:26.521Z,27.80
2023-03-27T15:19:15.010Z,24.40
2023-03-27T15:22:00.464Z,24.50
2023-03-27T15:24:57.368Z,26.33
2023-03-27T15:27:29.821Z,23.02
2023-03-27T15:30:19.421Z,22.17
2023-03-27T15:32:54.410Z,26.45
2023-03-27T15:35:41.346Z,25.58
2023-03-27T15:38:15.347Z,24.95
2023-03-27T15:40:47.793Z,22.85
2023-03-27T15:43:17.539Z,24.25
2023-03-27T15:46:14.878Z,24.98
2023-03-27T15:48:46.768Z,25.70
2023-03-27T15:51:35.916Z,23.60
2023-03-27T15:54:32.951Z,24.45
2023-03-27T15:57:11.448Z,21.73
2023-03-27T15:59:52.451Z,22.95
2023-03-27T16:02:24.927Z,32.47
2023-03-27T16:04:59.372Z,22.85
2023-03-27T16:07:34.500Z,25.27
2023-03-27T16:10:08.101Z,23.55
2023-03-27T16:12:58.195Z,25.05
2023-03-27T16:15:33.082Z,18.80
2023-03-27T16:18:24.798Z,18.77
2023-03-27T16:20:53.847Z,22.27
2023-03-27T16:23:23.130Z,21.45
2023-03-27T16:25:52.383Z,21.30
2023-03-27T16:28:21.445Z,24.00
2023-03-27T16:30:51.100Z,24.13
2023-03-27T16:33:23.690Z,25.20
2023-03-27T16:35:53.370Z,22.90
2023-03-27T16:38:22.821Z,23.02
2023-03-27T16:40:52.105Z,27.98
2023-03-27T16:43:21.090Z,16.90
2023-03-27T16:45:50.659Z,20.75
2023-03-27T16:48:19.647Z,25.80
2023-03-27T16:50:48.586Z,20.17
2023-03-27T16:53:17.608Z,24.38
2023-03-27T16:55:47.556Z,18.83
2023-03-27T16:58:16.564Z,22.05
2023-03-27T17:00:45.586Z,21.17
2023-03-27T17:03:14.704Z,24.00
2023-03-27T17:05:45.243Z,20.05
2023-03-27T17:08:17.544Z,21.48
2023-03-27T17:10:47.869Z,17.42
2023-03-27T17:13:17.622Z,21.77
2023-03-27T17:15:50.060Z,20.63
2023-03-27T17:18:19.082Z,19.90
2023-03-27T17:20:48.060Z,21.38
2023-03-27T17:23:17.176Z,19.30
2023-03-27T17:25:47.095Z,24.98
2023-03-27T17:28:16.349Z,21.02
2023-03-27T17:30:53.031Z,22.67
2023-03-27T17:33:30.554Z,21.67
2023-03-27T17:35:59.835Z,18.25
2023-03-27T17:38:29.132Z,24.20
2023-03-27T17:40:58.107Z,17.08
2023-03-27T17:43:27.056Z,22.13
2023-03-27T17:45:56.263Z,22.55
2023-03-27T17:48:25.409Z,20.60
2023-03-27T17:51:07.595Z,23.98
2023-03-27T17:53:39.688Z,21.20
2023-03-27T17:56:09.691Z,20.45
2023-03-27T17:58:38.658Z,18.42
2023-03-27T18:01:22.244Z,17.13
2023-03-27T18:03:51.997Z,23.92
2023-03-27T18:06:21.244Z,25.60
2023-03-27T18:08:50.182Z,18.25
2023-03-27T18:11:19.358Z,22.38
2023-03-27T18:13:53.741Z,18.90
2023-03-27T18:16:24.183Z,18.27
2023-03-27T18:18:55.972Z,20.73
2023-03-27T18:21:25.582Z,18.15
2023-03-27T18:23:57.148Z,18.50
2023-03-27T18:26:26.471Z,17.52
2023-03-27T18:28:56.390Z,16.77
2023-03-27T18:31:25.779Z,21.08
2023-03-27T18:33:54.985Z,15.65
2023-03-27T18:36:24.222Z,15.75
2023-03-27T18:38:53.328Z,20.45
2023-03-27T18:41:22.353Z,19.38
2023-03-27T18:43:51.418Z,16.88
2023-03-27T18:46:20.628Z,14.73
2023-03-27T18:48:52.209Z,17.42
2023-03-27T18:51:22.152Z,20.02
2023-03-27T18:53:52.391Z,15.07
2023-03-27T18:56:21.441Z,23.40
2023-03-27T18:58:50.649Z,17.55
2023-03-27T19:01:19.723Z,20.00
2023-03-27T19:03:51.280Z,15.15
2023-03-27T19:06:21.362Z,15.02
2023-03-27T19:08:50.321Z,17.70
2023-03-27T19:11:20.085Z,14.23
2023-03-27T19:13:49.065Z,20.33
2023-03-27T19:16:18.119Z,18.13
2023-03-27T19:18:47.081Z,14.07
2023-03-27T19:21:17.480Z,16.48
2023-03-27T19:23:46.479Z,14.25
2023-03-27T19:26:18.552Z,14.38
2023-03-27T19:28:50.963Z,15.18
2023-03-27T19:31:20.011Z,13.82
2023-03-27T19:33:49.007Z,17.20
2023-03-27T19:36:18.311Z,19.40
2023-03-27T19:38:47.349Z,15.98
2023-03-27T19:41:16.531Z,14.65
2023-03-27T19:43:45.763Z,13.43
2023-03-27T19:46:16.637Z,20.90
2023-03-27T19:48:48.609Z,19.92
2023-03-27T19:51:17.550Z,12.57
2023-03-27T19:53:46.835Z,20.98
2023-03-27T19:56:15.922Z,20.95
2023-03-27T19:58:45.002Z,15.20
2023-03-27T20:01:14.314Z,15.88
2023-03-27T20:03:43.551Z,15.82
2023-03-27T20:06:18.618Z,15.40
2023-03-27T20:08:47.819Z,15.80
2023-03-27T20:11:16.841Z,16.58
2023-03-27T20:13:56.206Z,16.67
2023-03-27T20:16:28.465Z,14.68
2023-03-27T20:19:06.478Z,15.82
2023-03-27T20:21:38.778Z,19.23
2023-03-27T20:24:10.909Z,19.63
2023-03-27T20:26:41.643Z,15.13
2023-03-27T20:29:17.426Z,16.77
2023-03-27T20:31:46.594Z,17.10
2023-03-27T20:34:16.110Z,17.45
2023-03-27T20:36:45.177Z,17.45
2023-03-27T20:39:15.395Z,15.82
2023-03-27T20:41:44.594Z,20.92
2023-03-27T20:44:19.138Z,19.35
2023-03-27T20:46:52.991Z,22.75
2023-03-27T20:49:39.783Z,20.60
2023-03-27T20:52:11.475Z,17.08
2023-03-27T20:54:40.766Z,17.67
2023-03-27T20:57:10.563Z,19.30
2023-03-27T20:59:39.857Z,20.90
2023-03-27T21:02:08.972Z,21.23
2023-03-27T21:04:38.051Z,23.20
2023-03-27T21:07:10.768Z,21.15
2023-03-27T21:09:40.242Z,20.00
2023-03-27T21:12:10.467Z,26.77
2023-03-27T21:14:39.529Z,23.27
2023-03-27T21:17:08.985Z,23.98
2023-03-27T21:19:37.944Z,27.15
2023-03-27T21:22:06.919Z,27.10
2023-03-27T21:24:35.971Z,29.88
2023-03-27T21:27:05.049Z,27.80
2023-03-27T21:29:34.158Z,25.67
2023-03-27T21:32:03.246Z,31.95
2023-03-27T21:34:32.302Z,26.88
2023-03-27T21:37:03.692Z,25.95
2023-03-27T21:39:32.725Z,25.80
2023-03-27T21:42:01.909Z,29.13
2023-03-27T21:44:30.984Z,28.25
2023-03-27T21:47:00.104Z,28.92
2023-03-27T21:49:29.216Z,29.85
2023-03-27T21:51:58.240Z,27.73
2023-03-27T21:54:27.256Z,27.40
2023-03-27T21:56:56.512Z,29.95
2023-03-27T21:59:26.388Z,27.05
2023-03-27T22:01:55.676Z,30.13
2023-03-27T22:04:25.379Z,32.17
2023-03-27T22:06:54.703Z,28.75
2023-03-27T22:09:23.949Z,30.30
2023-03-27T22:11:52.951Z,29.27
2023-03-27T22:14:21.881Z,29.35
2023-03-27T22:16:50.952Z,30.15
2023-03-27T22:19:20.331Z,31.52
2023-03-27T22:21:49.333Z,33.17
2023-03-27T22:24:18.383Z,29.55
2023-03-27T22:26:47.325Z,29.42
2023-03-27T22:29:17.034Z,31.15
2023-03-27T22:31:45.999Z,31.83
2023-03-27T22:34:14.926Z,31.73
2023-03-27T22:36:43.971Z,31.40
2023-03-27T22:39:12.944Z,31.45
2023-03-27T22:41:42.093Z,37.47
2023-03-27T22:44:11.218Z,33.70
2023-03-27T22:46:40.222Z,31.73
2023-03-27T22:49:09.228Z,29.88
2023-03-27T22:51:38.301Z,36.30
2023-03-27T22:54:07.468Z,36.40
2023-03-27T22:56:36.534Z,37.65
2023-03-27T22:59:05.678Z,30.75
2023-03-27T23:01:34.679Z,35.10
2023-03-27T23:04:03.639Z,37.10
2023-03-27T23:06:32.806Z,32.60
2023-03-27T23:09:01.970Z,34.05
2023-03-27T23:11:31.228Z,37.97
2023-03-27T23:14:00.198Z,34.35
2023-03-27T23:16:29.180Z,35.40
2023-03-27T23:18:58.145Z,29.25
2023-03-27T23:21:27.126Z,36.67
2023-03-27T23:23:56.730Z,34.65
2023-03-27T23:26:25.657Z,33.03
2023-03-27T23:28:54.648Z,36.70
2023-03-27T23:31:23.981Z,32.95
2023-03-27T23:33:53.204Z,36.55
2023-03-27T23:36:24.992Z,34.63
2023-03-27T23:38:54.833Z,34.78
2023-03-27T23:41:23.951Z,38.05
2023-03-27T23:43:55.052Z,38.15
2023-03-27T23:46:24.065Z,40.78
2023-03-27T23:48:53.088Z,44.20
2023-03-27T23:51:22.269Z,31.33
2023-03-27T23:53:51.788Z,34.30
2023-03-27T23:56:20.732Z,29.27
2023-03-27T23:58:49.705Z,36.03
